Terminal Aerodrome Forecast
Issued by NWS

Home | Current Version | Previous Version | Text Only | Print | Product List | Glossary On
Versions: 1 2 3 4 5 6 7 8 9 10 11 12 13
000
FTUS44 KBMX 181700
TAFEET
TAF
KEET 181738Z 1818/1918 05008KT 4SM -RA BR SCT008 OVC060
     FM181830 04007KT P6SM -RA SCT015 OVC080
     FM190200 02005KT P6SM OVC012
     FM191300 36010G20KT P6SM SCT020 OVC080=

USA.gov is the U.S. government's official web portal to all federal, state and local government web resources and services.